Aérodrome :
LOGIN :

S'inscrire | Disclaimer

   EN    FR    IT 

 










Légende :    VFR   VFR Marginal   IFR   IFR Intensif   IFR Très Intensif
Visi : 
Plafond : 
>= 8 km
>= 3000ft
5 à 8 km
1000 à 3000 ft
1500m à 5 km
500 à 1000 ft
800 à 1500m
200 à 500 ft
< 800m
< 200 ft
Symboles :   Orages  Brouillard  Fortes neiges  Fortes précipitations  Vent > 20 kt
SIGMETs :   Divers  Orages  Givrage  Turbulence  Onde Orograph.  Cendres Volcan.







- Altitude de l'aérodrome : 156 ft
- Code IATA : LCC


LIBN - Lecce Galatine (military)

DERNIER METAR :
  • 131455Z 02007KT 9000 FEW010 19/14 Q1026 RMK FEW VIS MIN 9000 WIND THR14 01007KT WIND THR32 01007KT BLU

METARs EXPIRÉS :
  • 131355Z 02007KT 9999 FEW030 19/15 Q1025 RMK FEW VIS MIN 9999 WIND THR14 03006KT WIND THR32 02007KT BLU
  • 131255Z 02008KT 9999 FEW030 20/15 Q1026 RMK FEW VIS MIN 9999 WIND THR14 02007KT WIND THR32 03007KT BLU

TAF TAF LIBN
Valide du 13 à 15h jusqu'au 14 à 00h UTC


131400Z 1315/1324 01007KT 9999 FEW025
BECMG 1316/1317 VRB03KT 5000 BR FEW008
BECMG 1318/1320 0800 FG SCT006
Pas de NOTAMs connus pour ce terrain.



MET'MAP, la Météo Aéronautique d'un coup d'oeil ! - Copyright ORBIFLY Décembre 2007 - Disclaimer

ORBIFLY MET'MAP TEAM :

Programmation & Développement : Alexandra Zaïnal
Conception & Développement : Baudouin d'Aumeries
Co-Programmation & Développement : Marc-Olivier Méhu
Soutien technique & logistique : Manuel Goepfert

Contact : metmap@orbifly.com




SOURCES & CREDITS :

   NOAA